Aeroporto :
LOGIN :

Iscrizione | Disclaimer

   EN    FR    IT 

 










Sommario :    VFR   VFR Marginale   IFR   IFR Intensivo   IFR Molto Intensivo
Visibilità : 
Base nubi : 
>= 8 km
>= 3000ft
5 / 8 km
1000 / 3000 ft
1500m / 5 km
500 / 1000 ft
800 / 1500m
200 / 500 ft
< 800m
< 200 ft
Simboli :   Temporali  Nebbia  Neve Forte  Precipitazioni Forti  Vento > 20 kt
SIGMETs :   Varie  Temporali  Ghiacco  Turbolenza  Onda orograficha  Ceneri Vulcaniche






- Altitudine del aeroporto : 314 ft
- Codice IATA : OTP


LROP - Bucarest - Henri Coanda

ULTIMO METAR :
  • 290530Z 25008KT 9999 BKN006 FEW035CB 16/16 Q1010 R26L/19//95 TEMPO BKN005 FEW035CB

METARs OBSOLETI :
  • 290500Z 21003KT 9999 SCT005 SCT035CB 16/16 Q1010 RESHRA R26L/19//95 TEMPO 5000 SHRA BKN010 SCT030CB
  • 290430Z 24004KT 9000 SHRA SCT040CB 16/16 Q1010 R26L/19//95 TEMPO 5000 SHRA BKN010 SCT030CB
  • 290400Z 25004KT 9999 -SHRA FEW040CB 16/16 Q1010 R26L/19//95 TEMPO 5000 SHRA BKN010 SCT030CB
  • 290330Z 27008KT 9999 -SHRA SCT007 FEW035CB 17/16 Q1011 TEMPO 5000 SHRA BKN010 SCT030CB
  • 290300Z 23010KT 9999 -RA FEW008 SCT040 17/17 Q1011 TEMPO 5000 -RA BKN010

TAF TAF LROP
Valido dal 29 a 06 ore il 30 a 06 ore UTC


290500Z 2906/3006 26012KT 9999 BKN010 FEW040CB
TEMPO 2906/2908 BKN005 SCT040CB
BECMG 2908/2910 NSC
TEMPO 2920/3003 5000 -SHRA SCT010 SCT040CB



MetMap, La meteo Aeronautica in un colpo d'occhio ! - Copyright ORBIFLY Dicembre 2007 - Disclaimer

ORBIFLY MET'MAP TEAM :

Programmazione e sviluppo : Alexandra Zaïnal
Concezione : Baudouin d'Aumeries
Aiuto per la programmazione : Marc-Olivier Méhu
Supporto tecnico e logistico : Manuel Goepfert
Aiuto per la traduzione : Arnaldo La Scala

Contatto : metmap@orbifly.com




FONTI E CREDITI :

   NOAA